Platzwetter Flugplatz Wels

Flugwetter Linz LOWL

[Quelle: ADDS]
METAR
LOWL 050620Z 09010KT CAVOK 05/M01 Q1027 NOSIG =
LOWL 050515Z 0506/0606 10010KT CAVOK TX17/0514Z TN04/0506Z TEMPO 0510/0519 10020G30KT
TAF
LOWL 050515Z 0506/0606 10010KT CAVOK TX17/0514Z TN04/0506Z TEMPO 0510/0519 10020G30KT =

Flugwetter Salzburg LOWS

[Quelle: ADDS]
METAR
LOWS 050620Z VRB01KT CAVOK 03/M00 Q1025 NOSIG =
LOWS 050515Z 0506/0606 15005KT CAVOK TX18/0514Z TN03/0506Z BECMG 0507/0509 04008KT BECMG 0519/0521 15005KT CAVOK
TAF
LOWS 050515Z 0506/0606 15005KT CAVOK TX18/0514Z TN03/0506Z BECMG 0507/0509 04008KT BECMG 0519/0521 15005KT CAVOK =

Wind - Verlauf

Windrichtung - Verlauf

Temperatur - Verlauf

Relative Luftfeuchtigkeit - Verlauf

Luftdruck - Verlauf

Cookies erleichtern die Bereitstellung unserer Dienste. Mit der Nutzung unserer Dienste erklären Sie sich damit einverstanden, dass wir Cookies verwenden.
Weitere Informationen Ok